createdAt,value
2018-01-20T00:01:04.640Z,99555.14
2018-01-20T00:02:10.378Z,99559.01
2018-01-20T00:03:16.111Z,99564.72
2018-01-20T00:04:22.620Z,99566.86
2018-01-20T00:05:28.379Z,99556.52
2018-01-20T00:06:34.884Z,99556.61
2018-01-20T00:07:40.609Z,99559.51
2018-01-20T00:08:46.926Z,99558.33
2018-01-20T00:10:09.821Z,99559.77
2018-01-20T00:11:32.269Z,99560.44
2018-01-20T00:12:37.982Z,99563.43
2018-01-20T00:13:44.491Z,99560.77
2018-01-20T00:14:50.206Z,99557.80
2018-01-20T00:15:55.928Z,99564.28
2018-01-20T00:17:02.293Z,99553.89
2018-01-20T00:18:08.270Z,99557.30
2018-01-20T00:19:13.983Z,99561.24
2018-01-20T00:20:19.717Z,99561.79
2018-01-20T00:21:25.428Z,99562.30
2018-01-20T00:22:31.932Z,99567.87
2018-01-20T00:23:37.643Z,99566.97
2018-01-20T00:24:49.470Z,99567.40
2018-01-20T00:26:00.840Z,99564.41
2018-01-20T00:27:06.570Z,99569.09
2018-01-20T00:28:12.323Z,99560.81
2018-01-20T00:29:18.053Z,99560.77
2018-01-20T00:30:23.767Z,99562.34
2018-01-20T00:31:30.262Z,99560.17
2018-01-20T00:32:36.116Z,99566.98
2018-01-20T00:33:41.868Z,99564.30
2018-01-20T00:34:47.581Z,99564.72
2018-01-20T00:35:53.342Z,99564.74
2018-01-20T00:36:59.061Z,99564.59
2018-01-20T00:38:04.796Z,99569.69
2018-01-20T00:39:10.568Z,99574.30
2018-01-20T00:40:16.284Z,99571.58
2018-01-20T00:41:22.019Z,99574.13
2018-01-20T00:42:28.503Z,99575.83
2018-01-20T00:43:34.248Z,99574.58
2018-01-20T00:44:40.011Z,99578.02
2018-01-20T00:45:45.723Z,99578.79
2018-01-20T00:46:51.448Z,99582.59
2018-01-20T00:47:57.164Z,99575.08
2018-01-20T00:49:02.684Z,99574.95
2018-01-20T00:50:09.946Z,99573.61
2018-01-20T00:51:15.670Z,99570.94
2018-01-20T00:52:21.152Z,99563.88
2018-01-20T00:53:27.727Z,99574.95
2018-01-20T00:54:34.207Z,99575.77
2018-01-20T00:55:39.939Z,99572.73
2018-01-20T00:56:45.653Z,99571.86
2018-01-20T00:57:52.164Z,99571.41
2018-01-20T00:58:57.710Z,99574.77
2018-01-20T01:00:03.445Z,99575.20
2018-01-20T01:01:09.198Z,99579.09
2018-01-20T01:02:14.955Z,99573.50
2018-01-20T01:03:20.667Z,99568.55
2018-01-20T01:04:26.401Z,99574.57
2018-01-20T01:05:32.122Z,99570.25
2018-01-20T01:06:37.879Z,99572.33
2018-01-20T01:07:43.684Z,99574.81
2018-01-20T01:08:49.449Z,99576.52
2018-01-20T01:09:55.095Z,99570.31
2018-01-20T01:11:00.828Z,99570.27
2018-01-20T01:12:06.868Z,99568.05
2018-01-20T01:13:12.381Z,99571.83
2018-01-20T01:14:18.156Z,99571.94
2018-01-20T01:15:23.884Z,99568.92
2018-01-20T01:16:30.360Z,99572.36
2018-01-20T01:17:36.122Z,99577.55
2018-01-20T01:18:41.845Z,99569.02
2018-01-20T01:19:47.557Z,99568.09
2018-01-20T01:20:54.050Z,99567.59
2018-01-20T01:21:59.788Z,99568.41
2018-01-20T01:23:05.546Z,99571.56
2018-01-20T01:24:11.263Z,99575.01
2018-01-20T01:25:17.002Z,99572.88
2018-01-20T01:26:22.723Z,99569.86
2018-01-20T01:27:29.230Z,99577.13
2018-01-20T01:28:34.990Z,99576.20
2018-01-20T01:29:40.696Z,99577.05
2018-01-20T01:30:46.431Z,99572.38
2018-01-20T01:31:52.147Z,99580.78
2018-01-20T01:32:58.713Z,99576.46
2018-01-20T01:34:05.404Z,99574.77
2018-01-20T01:35:11.156Z,99582.80
2018-01-20T01:36:16.871Z,99576.47
2018-01-20T01:37:22.598Z,99579.27
2018-01-20T01:38:29.098Z,99578.97
2018-01-20T01:39:34.837Z,99582.09
2018-01-20T01:40:40.556Z,99573.95
2018-01-20T01:41:46.290Z,99578.77
2018-01-20T01:42:52.061Z,99578.81
2018-01-20T01:43:57.773Z,99582.34
2018-01-20T01:45:03.651Z,99578.39
2018-01-20T01:46:09.373Z,99578.14
2018-01-20T01:47:15.110Z,99576.88
2018-01-20T01:48:20.820Z,99577.35
2018-01-20T01:49:27.315Z,99582.97
2018-01-20T01:50:33.114Z,99579.56
2018-01-20T01:51:39.601Z,99585.50
2018-01-20T01:52:45.307Z,99582.41
2018-01-20T01:53:51.040Z,99583.23
2018-01-20T01:54:56.790Z,99583.66
2018-01-20T01:56:03.296Z,99578.81
2018-01-20T01:57:09.008Z,99579.55
2018-01-20T01:58:15.514Z,99574.08
2018-01-20T01:59:21.264Z,99574.67
2018-01-20T02:00:27.046Z,99576.08
2018-01-20T02:01:33.562Z,99573.88
2018-01-20T02:02:39.332Z,99570.47
2018-01-20T02:03:45.124Z,99577.25
2018-01-20T02:04:50.891Z,99578.84
2018-01-20T02:05:56.677Z,99579.17
2018-01-20T02:07:03.266Z,99576.53
2018-01-20T02:08:09.078Z,99577.02
2018-01-20T02:09:15.547Z,99574.90
2018-01-20T02:10:21.277Z,99576.13
2018-01-20T02:11:26.806Z,99574.87
2018-01-20T02:12:33.335Z,99576.85
2018-01-20T02:13:39.286Z,99573.35
2018-01-20T02:14:45.102Z,99568.84
2018-01-20T02:15:50.662Z,99566.34
2018-01-20T02:16:56.397Z,99568.11
2018-01-20T02:18:02.148Z,99566.37
2018-01-20T02:19:07.862Z,99567.63
2018-01-20T02:20:12.753Z,99566.80
2018-01-20T02:21:18.478Z,99566.09
2018-01-20T02:22:24.987Z,99563.80
2018-01-20T02:23:30.736Z,99563.48
2018-01-20T02:24:36.460Z,99560.63
2018-01-20T02:25:42.251Z,99557.70
2018-01-20T02:26:47.986Z,99554.09
2018-01-20T02:27:53.710Z,99555.86
2018-01-20T02:28:59.451Z,99560.17
2018-01-20T02:30:04.844Z,99559.07
2018-01-20T02:31:10.573Z,99556.36
2018-01-20T02:32:16.295Z,99556.80
2018-01-20T02:33:22.784Z,99554.16
2018-01-20T02:34:28.531Z,99556.33
2018-01-20T02:35:34.304Z,99556.30
2018-01-20T02:36:40.035Z,99554.12
2018-01-20T02:37:45.790Z,99554.14
2018-01-20T02:38:51.519Z,99553.81
2018-01-20T02:39:57.261Z,99555.11
2018-01-20T02:41:02.973Z,99555.11
2018-01-20T02:42:08.705Z,99554.69
2018-01-20T02:43:14.419Z,99551.31
2018-01-20T02:44:20.935Z,99553.84
2018-01-20T02:45:26.691Z,99553.84
2018-01-20T02:46:32.432Z,99552.12
2018-01-20T02:47:38.146Z,99550.06
2018-01-20T02:48:43.873Z,99546.48
2018-01-20T02:49:49.601Z,99551.29
2018-01-20T02:50:55.328Z,99546.06
2018-01-20T02:52:01.828Z,99547.38
2018-01-20T02:53:07.538Z,99549.10
2018-01-20T02:54:14.030Z,99538.70
2018-01-20T02:55:19.762Z,99546.04
2018-01-20T02:56:25.507Z,99540.90
2018-01-20T02:57:31.218Z,99544.61
2018-01-20T02:58:36.946Z,99543.64
2018-01-20T02:59:43.436Z,99540.28
2018-01-20T03:00:49.158Z,99541.55
2018-01-20T03:01:55.665Z,99538.70
2018-01-20T03:03:01.372Z,99544.23
2018-01-20T03:04:07.080Z,99543.34
2018-01-20T03:05:12.802Z,99548.91
2018-01-20T03:06:18.512Z,99543.31
2018-01-20T03:07:24.269Z,99537.30
2018-01-20T03:08:30.118Z,99535.96
2018-01-20T03:09:35.875Z,99537.27
2018-01-20T03:10:41.756Z,99533.63
2018-01-20T03:11:47.463Z,99535.39
2018-01-20T03:12:53.217Z,99534.12
2018-01-20T03:13:59.722Z,99539.41
2018-01-20T03:15:05.431Z,99538.58
2018-01-20T03:16:11.904Z,99533.99
2018-01-20T03:17:17.607Z,99539.25
2018-01-20T03:18:23.419Z,99541.20
2018-01-20T03:19:29.147Z,99542.64
2018-01-20T03:20:34.866Z,99543.09
2018-01-20T03:21:40.570Z,99546.04
2018-01-20T03:22:46.294Z,99546.51
2018-01-20T03:23:52.053Z,99547.28
2018-01-20T03:24:57.782Z,99548.48
2018-01-20T03:26:03.498Z,99544.61
2018-01-20T03:27:09.330Z,99548.77
2018-01-20T03:28:15.173Z,99550.48
2018-01-20T03:29:20.972Z,99546.27
2018-01-20T03:30:27.449Z,99552.05
2018-01-20T03:31:33.186Z,99541.73
2018-01-20T03:32:39.674Z,99545.62
2018-01-20T03:33:45.399Z,99547.34
2018-01-20T03:34:51.157Z,99543.81
2018-01-20T03:35:56.870Z,99545.47
2018-01-20T03:37:03.364Z,99547.77
2018-01-20T03:38:09.164Z,99549.98
2018-01-20T03:39:15.632Z,99547.30
2018-01-20T03:40:21.397Z,99553.40
2018-01-20T03:41:27.558Z,99548.02
2018-01-20T03:42:33.290Z,99548.70
2018-01-20T03:43:39.022Z,99542.28
2018-01-20T03:44:44.727Z,99546.95
2018-01-20T03:45:51.267Z,99550.89
2018-01-20T03:46:56.993Z,99547.59
2018-01-20T03:48:02.724Z,99547.59
2018-01-20T03:49:08.091Z,99549.31
2018-01-20T03:50:13.825Z,99556.34
2018-01-20T03:51:19.590Z,99549.19
2018-01-20T03:52:26.093Z,99544.11
2018-01-20T03:53:31.803Z,99544.13
2018-01-20T03:54:37.520Z,99540.98
2018-01-20T03:55:43.227Z,99544.94
2018-01-20T03:56:49.494Z,99543.16
2018-01-20T03:57:55.205Z,99543.48
2018-01-20T03:59:00.924Z,99542.23
2018-01-20T04:00:07.430Z,99541.14
2018-01-20T04:01:13.165Z,99546.30
2018-01-20T04:02:18.932Z,99543.73
2018-01-20T04:03:24.649Z,99539.94
2018-01-20T04:04:30.378Z,99544.17
2018-01-20T04:05:36.094Z,99535.91
2018-01-20T04:06:42.593Z,99539.34
2018-01-20T04:07:48.327Z,99543.69
2018-01-20T04:08:54.056Z,99543.13
2018-01-20T04:09:59.774Z,99536.56
2018-01-20T04:11:06.272Z,99541.24
2018-01-20T04:12:12.008Z,99540.00
2018-01-20T04:13:17.788Z,99534.84
2018-01-20T04:14:23.492Z,99535.44
2018-01-20T04:15:29.214Z,99534.91
2018-01-20T04:16:34.935Z,99534.51
2018-01-20T04:17:41.427Z,99535.88
2018-01-20T04:18:47.203Z,99531.09
2018-01-20T04:19:52.931Z,99533.64
2018-01-20T04:20:58.698Z,99530.97
2018-01-20T04:22:04.420Z,99532.77
2018-01-20T04:23:10.154Z,99532.77
2018-01-20T04:24:15.911Z,99534.91
2018-01-20T04:25:21.646Z,99531.39
2018-01-20T04:26:27.399Z,99530.95
2018-01-20T04:27:33.148Z,99528.00
2018-01-20T04:28:38.894Z,99532.39
2018-01-20T04:29:44.713Z,99525.60
2018-01-20T04:30:50.434Z,99533.20
2018-01-20T04:31:56.159Z,99524.58
2018-01-20T04:33:01.873Z,99530.09
2018-01-20T04:34:07.616Z,99529.77
2018-01-20T04:35:14.132Z,99538.84
2018-01-20T04:36:19.870Z,99532.41
2018-01-20T04:37:25.611Z,99522.60
2018-01-20T04:38:31.338Z,99528.26
2018-01-20T04:39:37.070Z,99522.70
2018-01-20T04:40:42.835Z,99520.45
2018-01-20T04:41:48.540Z,99525.12
2018-01-20T04:42:54.074Z,99519.94
2018-01-20T04:44:00.748Z,99524.20
2018-01-20T04:45:06.464Z,99518.72
2018-01-20T04:46:12.202Z,99524.39
2018-01-20T04:47:18.351Z,99524.39
2018-01-20T04:48:24.894Z,99522.88
2018-01-20T04:49:31.398Z,99519.05
2018-01-20T04:50:37.116Z,99520.44
2018-01-20T04:51:43.616Z,99524.34
2018-01-20T04:52:49.382Z,99510.09
2018-01-20T04:53:55.886Z,99520.58
2018-01-20T04:55:01.630Z,99505.02
2018-01-20T04:56:07.162Z,99504.59
2018-01-20T04:57:12.914Z,99504.77
2018-01-20T04:58:18.652Z,99505.25
2018-01-20T04:59:24.396Z,99503.22
2018-01-20T05:00:30.404Z,99507.48
2018-01-20T05:01:36.134Z,99510.47
2018-01-20T05:02:41.883Z,99507.55
2018-01-20T05:03:48.253Z,99506.20
2018-01-20T05:04:54.763Z,99507.01
2018-01-20T05:06:00.528Z,99498.77
2018-01-20T05:07:06.275Z,99502.48
2018-01-20T05:08:12.020Z,99503.14
2018-01-20T05:09:17.740Z,99506.03
2018-01-20T05:10:23.486Z,99499.05
2018-01-20T05:11:29.205Z,99504.55
2018-01-20T05:12:35.016Z,99500.22
2018-01-20T05:13:40.781Z,99497.58
2018-01-20T05:14:46.499Z,99499.93
2018-01-20T05:15:52.350Z,99496.98
2018-01-20T05:16:58.403Z,99493.20
2018-01-20T05:18:04.129Z,99498.84
2018-01-20T05:19:09.872Z,99496.60
2018-01-20T05:20:15.575Z,99498.40
2018-01-20T05:21:21.675Z,99495.55
2018-01-20T05:22:27.395Z,99498.59
2018-01-20T05:23:33.875Z,99498.23
2018-01-20T05:24:39.854Z,99498.27
2018-01-20T05:25:45.664Z,99497.89
2018-01-20T05:26:51.393Z,99502.53
2018-01-20T05:27:57.126Z,99505.59
2018-01-20T05:29:02.839Z,99499.98
2018-01-20T05:30:09.351Z,99492.73
2018-01-20T05:31:15.080Z,99491.97
2018-01-20T05:32:20.815Z,99493.33
2018-01-20T05:33:26.525Z,99500.15
2018-01-20T05:34:32.258Z,99494.05
2018-01-20T05:35:38.014Z,99496.16
2018-01-20T05:36:44.587Z,99491.29
2018-01-20T05:37:50.303Z,99495.60
2018-01-20T05:38:56.037Z,99495.05
2018-01-20T05:40:01.880Z,99491.55
2018-01-20T05:41:08.416Z,99484.69
2018-01-20T05:42:13.935Z,99483.02
2018-01-20T05:43:19.648Z,99483.52
2018-01-20T05:44:26.154Z,99481.30
2018-01-20T05:45:31.936Z,99481.89
2018-01-20T05:46:38.452Z,99478.83
2018-01-20T05:47:44.164Z,99471.97
2018-01-20T05:48:49.937Z,99472.96
2018-01-20T05:49:55.854Z,99470.00
2018-01-20T05:51:01.598Z,99468.30
2018-01-20T05:52:07.349Z,99472.52
2018-01-20T05:53:13.070Z,99472.54
2018-01-20T05:54:18.816Z,99469.55
2018-01-20T05:55:24.580Z,99466.14
2018-01-20T05:56:30.309Z,99466.54
2018-01-20T05:57:36.288Z,99467.08
2018-01-20T05:58:42.024Z,99463.77
2018-01-20T05:59:47.753Z,99463.02
2018-01-20T06:00:53.473Z,99469.54
2018-01-20T06:01:59.206Z,99470.92
2018-01-20T06:03:04.975Z,99471.45
2018-01-20T06:04:10.733Z,99471.59
2018-01-20T06:05:17.225Z,99471.23
2018-01-20T06:06:23.713Z,99470.08
2018-01-20T06:07:29.429Z,99470.08
2018-01-20T06:08:35.942Z,99465.41
2018-01-20T06:09:41.660Z,99474.09
2018-01-20T06:10:47.394Z,99474.20
2018-01-20T06:11:53.139Z,99471.73
2018-01-20T06:12:58.867Z,99473.52
2018-01-20T06:14:04.627Z,99472.64
2018-01-20T06:15:10.370Z,99469.73
2018-01-20T06:16:16.114Z,99472.67
2018-01-20T06:17:22.224Z,99474.81
2018-01-20T06:18:27.968Z,99472.64
2018-01-20T06:19:34.487Z,99471.45
2018-01-20T06:20:40.271Z,99474.06
2018-01-20T06:21:46.790Z,99474.08
2018-01-20T06:22:52.509Z,99475.78
2018-01-20T06:23:58.227Z,99471.06
2018-01-20T06:25:03.987Z,99473.67
2018-01-20T06:26:09.736Z,99472.83
2018-01-20T06:27:15.485Z,99470.27
2018-01-20T06:28:21.207Z,99473.25
2018-01-20T06:29:26.942Z,99467.16
2018-01-20T06:30:32.692Z,99467.58
2018-01-20T06:31:38.416Z,99463.23
2018-01-20T06:32:44.203Z,99460.66
2018-01-20T06:33:49.984Z,99465.00
2018-01-20T06:34:56.583Z,99463.70
2018-01-20T06:36:02.335Z,99462.83
2018-01-20T06:37:08.126Z,99467.56
2018-01-20T06:38:15.770Z,99467.65
2018-01-20T06:39:21.494Z,99469.94
2018-01-20T06:40:27.230Z,99465.46
2018-01-20T06:41:33.120Z,99469.28
2018-01-20T06:42:38.608Z,99468.72
2018-01-20T06:43:44.351Z,99464.27
2018-01-20T06:44:50.174Z,99465.52
2018-01-20T06:45:55.905Z,99466.27
2018-01-20T06:47:01.697Z,99462.31
2018-01-20T06:48:07.492Z,99455.67
2018-01-20T06:49:13.390Z,99458.23
2018-01-20T06:50:19.181Z,99463.27
2018-01-20T06:51:25.017Z,99461.81
2018-01-20T06:52:30.855Z,99463.34
2018-01-20T06:53:36.615Z,99461.05
2018-01-20T06:54:42.350Z,99468.30
2018-01-20T06:55:48.091Z,99463.47
2018-01-20T06:56:53.835Z,99466.06
2018-01-20T06:57:59.589Z,99454.48
2018-01-20T06:59:05.336Z,99460.06
2018-01-20T07:00:11.310Z,99457.47
2018-01-20T07:01:17.053Z,99463.42
2018-01-20T07:02:22.785Z,99458.17
2018-01-20T07:03:28.536Z,99462.80
2018-01-20T07:04:34.068Z,99460.21
2018-01-20T07:05:39.792Z,99470.51
2018-01-20T07:06:45.335Z,99469.53
2018-01-20T07:07:51.060Z,99467.72
2018-01-20T07:08:56.811Z,99468.02
2018-01-20T07:10:02.619Z,99473.95
2018-01-20T07:11:08.205Z,99471.75
2018-01-20T07:12:13.944Z,99469.59
2018-01-20T07:13:19.683Z,99476.92
2018-01-20T07:14:25.428Z,99470.27
2018-01-20T07:15:31.136Z,99473.63
2018-01-20T07:16:36.690Z,99470.23
2018-01-20T07:17:42.415Z,99475.80
2018-01-20T07:18:48.140Z,99474.39
2018-01-20T07:19:54.023Z,99476.02
2018-01-20T07:20:59.737Z,99475.05
2018-01-20T07:22:05.481Z,99471.90
2018-01-20T07:23:11.231Z,99478.47
2018-01-20T07:24:16.972Z,99470.78
2018-01-20T07:25:22.732Z,99473.77
2018-01-20T07:26:28.474Z,99482.25
2018-01-20T07:27:34.207Z,99472.23
2018-01-20T07:28:39.935Z,99480.01
2018-01-20T07:29:45.653Z,99476.46
2018-01-20T07:30:52.159Z,99475.52
2018-01-20T07:31:57.898Z,99475.14
2018-01-20T07:33:03.620Z,99483.79
2018-01-20T07:34:09.371Z,99476.14
2018-01-20T07:35:15.089Z,99478.31
2018-01-20T07:36:20.910Z,99477.86
2018-01-20T07:37:26.671Z,99477.84
2018-01-20T07:38:33.157Z,99474.84
2018-01-20T07:39:38.901Z,99471.00
2018-01-20T07:40:44.651Z,99473.57
2018-01-20T07:41:50.448Z,99472.41
2018-01-20T07:42:56.191Z,99472.67
2018-01-20T07:44:02.240Z,99473.13
2018-01-20T07:45:08.207Z,99471.35
2018-01-20T07:46:14.014Z,99470.51
2018-01-20T07:47:20.679Z,99474.39
2018-01-20T07:48:27.213Z,99470.93
2018-01-20T07:49:33.242Z,99472.28
2018-01-20T07:50:38.632Z,99469.20
2018-01-20T07:51:44.381Z,99471.41
2018-01-20T07:52:50.164Z,99479.58
2018-01-20T07:53:55.886Z,99475.64
2018-01-20T07:55:01.689Z,99467.86
2018-01-20T07:56:07.407Z,99469.63
2018-01-20T07:57:13.136Z,99469.95
2018-01-20T07:58:18.876Z,99469.83
2018-01-20T07:59:24.600Z,99473.59
2018-01-20T08:00:30.325Z,99470.28
2018-01-20T08:01:36.055Z,99468.88
2018-01-20T08:02:41.803Z,99468.55
2018-01-20T08:03:47.577Z,99471.17
2018-01-20T08:04:53.305Z,99468.77
2018-01-20T08:05:59.020Z,99470.33
2018-01-20T08:07:04.743Z,99470.73
2018-01-20T08:08:10.475Z,99473.61
2018-01-20T08:09:16.998Z,99470.28
2018-01-20T08:10:22.713Z,99469.83
2018-01-20T08:11:28.454Z,99473.97
2018-01-20T08:12:34.172Z,99467.82
2018-01-20T08:13:39.887Z,99471.22
2018-01-20T08:14:46.397Z,99464.38
2018-01-20T08:15:52.132Z,99468.27
2018-01-20T08:16:57.853Z,99469.49
2018-01-20T08:18:03.827Z,99474.20
2018-01-20T08:19:09.568Z,99461.61
2018-01-20T08:20:15.331Z,99466.84
2018-01-20T08:21:21.071Z,99471.11
2018-01-20T08:22:26.860Z,99467.24
2018-01-20T08:23:33.494Z,99463.67
2018-01-20T08:24:39.262Z,99464.39
2018-01-20T08:25:45.795Z,99459.02
2018-01-20T08:26:51.578Z,99460.22
2018-01-20T08:27:57.300Z,99461.06
2018-01-20T08:29:04.006Z,99459.05
2018-01-20T08:30:09.777Z,99462.70
2018-01-20T08:31:15.758Z,99462.48
2018-01-20T08:32:22.251Z,99458.42
2018-01-20T08:33:27.984Z,99467.52
2018-01-20T08:34:33.379Z,99464.73
2018-01-20T08:35:39.883Z,99467.27
2018-01-20T08:36:45.625Z,99462.16
2018-01-20T08:37:51.369Z,99465.71
2018-01-20T08:38:57.113Z,99462.72
2018-01-20T08:40:02.841Z,99465.27
2018-01-20T08:41:08.639Z,99465.47
2018-01-20T08:42:14.204Z,99462.22
2018-01-20T08:43:20.683Z,99467.41
2018-01-20T08:44:26.471Z,99462.95
2018-01-20T08:45:32.199Z,99463.61
2018-01-20T08:46:37.923Z,99460.80
2018-01-20T08:47:43.694Z,99457.73
2018-01-20T08:48:49.680Z,99469.69
2018-01-20T08:49:55.415Z,99461.66
2018-01-20T08:51:01.964Z,99463.64
2018-01-20T08:52:08.441Z,99463.84
2018-01-20T08:53:14.179Z,99461.02
2018-01-20T08:54:19.894Z,99461.72
2018-01-20T08:55:25.615Z,99463.50
2018-01-20T08:56:31.316Z,99463.25
2018-01-20T08:57:37.036Z,99465.25
2018-01-20T08:58:43.595Z,99464.29
2018-01-20T08:59:50.088Z,99457.53
2018-01-20T09:00:55.630Z,99459.92
2018-01-20T09:02:01.362Z,99457.64
2018-01-20T09:03:07.103Z,99453.95
2018-01-20T09:04:12.858Z,99457.63
2018-01-20T09:05:18.564Z,99460.44
2018-01-20T09:06:24.311Z,99462.11
2018-01-20T09:07:30.144Z,99456.94
2018-01-20T09:08:35.875Z,99453.09
2018-01-20T09:09:42.371Z,99455.41
2018-01-20T09:10:48.086Z,99457.56
2018-01-20T09:11:54.017Z,99461.04
2018-01-20T09:13:00.514Z,99458.98
2018-01-20T09:14:06.221Z,99463.42
2018-01-20T09:15:12.205Z,99463.81
2018-01-20T09:16:17.997Z,99463.73
2018-01-20T09:17:24.636Z,99458.05
2018-01-20T09:18:31.650Z,99457.34
2018-01-20T09:19:38.354Z,99459.55
2018-01-20T09:20:44.484Z,99456.16
2018-01-20T09:21:51.583Z,99457.43
2018-01-20T09:22:59.734Z,99456.28
2018-01-20T09:24:05.722Z,99465.20
2018-01-20T09:25:11.906Z,99462.57
2018-01-20T09:26:18.794Z,99464.27
2018-01-20T09:27:24.548Z,99454.72
2018-01-20T09:28:30.498Z,99455.70
2018-01-20T09:29:36.335Z,99460.15
2018-01-20T09:30:42.895Z,99462.08
2018-01-20T09:31:49.488Z,99460.23
2018-01-20T09:32:55.630Z,99465.06
2018-01-20T09:34:01.867Z,99462.23
2018-01-20T09:35:08.020Z,99459.73
2018-01-20T09:36:14.877Z,99458.48
2018-01-20T09:37:21.633Z,99457.27
2018-01-20T09:38:27.537Z,99463.48
2018-01-20T09:39:35.240Z,99457.78
2018-01-20T09:40:45.576Z,99459.33
2018-01-20T09:41:51.799Z,99461.59
2018-01-20T09:43:01.450Z,99463.23
2018-01-20T09:44:09.482Z,99463.38
2018-01-20T09:45:15.755Z,99462.53
2018-01-20T09:46:22.672Z,99459.53
2018-01-20T09:47:29.516Z,99463.91
2018-01-20T09:48:37.241Z,99459.30
2018-01-20T09:49:45.536Z,99460.20
2018-01-20T09:50:52.362Z,99460.98
2018-01-20T09:51:59.671Z,99459.16
2018-01-20T09:53:06.102Z,99463.41
2018-01-20T09:54:12.956Z,99468.06
2018-01-20T09:55:19.411Z,99461.56
2018-01-20T09:56:26.965Z,99463.47
2018-01-20T09:57:33.292Z,99465.53
2018-01-20T09:58:39.535Z,99469.22
2018-01-20T09:59:46.753Z,99467.80
2018-01-20T10:00:53.752Z,99465.08
2018-01-20T10:01:59.985Z,99465.72
2018-01-20T10:03:09.582Z,99461.27
2018-01-20T10:04:17.290Z,99465.66
2018-01-20T10:05:30.016Z,99463.36
2018-01-20T10:06:37.079Z,99460.00
2018-01-20T10:07:43.271Z,99458.54
2018-01-20T10:08:49.189Z,99455.02
2018-01-20T10:09:55.425Z,99451.59
2018-01-20T10:11:01.957Z,99454.44
2018-01-20T10:12:14.584Z,99447.75
2018-01-20T10:13:20.623Z,99442.92
2018-01-20T10:14:27.481Z,99440.75
2018-01-20T10:15:33.637Z,99440.41
2018-01-20T10:16:39.983Z,99438.70
2018-01-20T10:17:55.196Z,99436.63
2018-01-20T10:19:02.051Z,99436.81
2018-01-20T10:20:09.178Z,99434.39
2018-01-20T10:21:15.144Z,99434.60
2018-01-20T10:22:21.413Z,99438.52
2018-01-20T10:23:30.022Z,99439.85
2018-01-20T10:24:36.657Z,99433.52
2018-01-20T10:25:42.565Z,99435.17
2018-01-20T10:26:49.880Z,99430.63
2018-01-20T10:27:55.904Z,99430.63
2018-01-20T10:29:03.736Z,99430.63
2018-01-20T10:30:10.736Z,99428.19
2018-01-20T10:31:16.891Z,99432.63
2018-01-20T10:32:23.430Z,99427.98
2018-01-20T10:33:30.636Z,99428.05
2018-01-20T10:34:38.731Z,99424.20
2018-01-20T10:35:47.840Z,99425.79
2018-01-20T10:36:53.786Z,99428.22
2018-01-20T10:37:59.580Z,99421.33
2018-01-20T10:39:05.445Z,99420.38
2018-01-20T10:40:11.271Z,99426.09
2018-01-20T10:41:17.945Z,99422.80
2018-01-20T10:42:23.761Z,99432.92
2018-01-20T10:43:30.132Z,99428.46
2018-01-20T10:44:36.732Z,99429.95
2018-01-20T10:45:42.490Z,99421.59
2018-01-20T10:46:48.266Z,99421.70
2018-01-20T10:47:54.052Z,99422.82
2018-01-20T10:49:00.697Z,99416.52
2018-01-20T10:50:06.705Z,99416.33
2018-01-20T10:51:13.172Z,99414.56
2018-01-20T10:52:19.028Z,99413.06
2018-01-20T10:53:24.853Z,99412.41
2018-01-20T10:54:30.656Z,99407.41
2018-01-20T10:55:36.479Z,99411.22
2018-01-20T10:56:42.364Z,99409.58
2018-01-20T10:57:48.093Z,99412.41
2018-01-20T10:58:53.850Z,99414.46
2018-01-20T10:59:59.597Z,99421.11
2018-01-20T11:01:06.280Z,99417.28
2018-01-20T11:02:15.914Z,99413.50
2018-01-20T11:03:22.866Z,99419.58
2018-01-20T11:04:29.756Z,99411.91
2018-01-20T11:05:35.680Z,99410.45
2018-01-20T11:06:41.644Z,99414.19
2018-01-20T11:07:48.328Z,99410.52
2018-01-20T11:08:54.203Z,99401.13
2018-01-20T11:10:01.006Z,99401.72
2018-01-20T11:11:10.120Z,99402.50
2018-01-20T11:12:17.429Z,99397.16
2018-01-20T11:13:23.380Z,99400.71
2018-01-20T11:14:29.296Z,99406.02
2018-01-20T11:15:35.954Z,99397.09
2018-01-20T11:16:42.648Z,99392.80
2018-01-20T11:17:48.737Z,99396.14
2018-01-20T11:18:54.745Z,99398.48
2018-01-20T11:20:00.907Z,99400.50
2018-01-20T11:21:06.939Z,99394.86
2018-01-20T11:22:13.153Z,99390.39
2018-01-20T11:23:19.523Z,99394.91
2018-01-20T11:24:26.397Z,99391.28
2018-01-20T11:25:33.012Z,99385.16
2018-01-20T11:26:39.142Z,99387.58
2018-01-20T11:27:45.278Z,99381.44
2018-01-20T11:28:52.153Z,99374.19
2018-01-20T11:29:58.770Z,99374.77
2018-01-20T11:31:05.268Z,99376.30
2018-01-20T11:32:11.213Z,99365.84
2018-01-20T11:33:17.366Z,99367.58
2018-01-20T11:34:24.203Z,99359.78
2018-01-20T11:35:31.149Z,99356.02
2018-01-20T11:36:37.227Z,99357.12
2018-01-20T11:37:44.272Z,99351.86
2018-01-20T11:38:51.116Z,99347.08
2018-01-20T11:39:57.285Z,99349.58
2018-01-20T11:41:03.526Z,99338.14
2018-01-20T11:42:10.357Z,99342.14
2018-01-20T11:43:18.052Z,99338.86
2018-01-20T11:44:24.033Z,99334.59
2018-01-20T11:45:30.060Z,99329.39
2018-01-20T11:46:36.036Z,99331.08
2018-01-20T11:47:42.345Z,99327.54
2018-01-20T11:48:48.602Z,99326.53
2018-01-20T11:49:54.926Z,99325.59
2018-01-20T11:51:00.814Z,99321.03
2018-01-20T11:52:06.638Z,99326.40
2018-01-20T11:53:13.336Z,99319.47
2018-01-20T11:54:19.161Z,99321.03
2018-01-20T11:55:25.317Z,99314.68
2018-01-20T11:56:31.367Z,99317.55
2018-01-20T11:57:38.052Z,99311.88
2018-01-20T11:58:44.103Z,99304.77
2018-01-20T11:59:50.093Z,99306.75
2018-01-20T12:00:56.871Z,99306.08
2018-01-20T12:02:02.782Z,99299.59
2018-01-20T12:03:08.653Z,99301.19
2018-01-20T12:04:15.341Z,99294.22
2018-01-20T12:05:21.246Z,99293.77
2018-01-20T12:06:27.283Z,99289.38
2018-01-20T12:07:33.200Z,99288.56
2018-01-20T12:08:38.955Z,99289.61
2018-01-20T12:09:45.279Z,99286.09
2018-01-20T12:10:51.193Z,99282.89
2018-01-20T12:11:57.696Z,99283.11
2018-01-20T12:13:03.621Z,99279.16
2018-01-20T12:14:09.475Z,99271.80
2018-01-20T12:15:15.306Z,99274.48
2018-01-20T12:16:21.278Z,99268.10
2018-01-20T12:17:27.219Z,99265.57
2018-01-20T12:18:33.100Z,99268.03
2018-01-20T12:19:38.678Z,99262.02
2018-01-20T12:20:45.253Z,99259.69
2018-01-20T12:21:51.058Z,99257.64
2018-01-20T12:22:57.732Z,99255.23
2018-01-20T12:24:03.506Z,99257.33
2018-01-20T12:25:10.134Z,99250.12
2018-01-20T12:26:15.878Z,99255.16
2018-01-20T12:27:21.704Z,99254.94
2018-01-20T12:28:28.230Z,99253.28
2018-01-20T12:29:34.293Z,99259.30
2018-01-20T12:30:40.085Z,99245.48
2018-01-20T12:31:45.800Z,99256.95
2018-01-20T12:32:52.271Z,99248.30
2018-01-20T12:33:59.452Z,99247.44
2018-01-20T12:35:05.348Z,99246.27
2018-01-20T12:36:11.993Z,99249.84
2018-01-20T12:37:18.533Z,99247.76
2018-01-20T12:38:24.303Z,99247.82
2018-01-20T12:39:30.058Z,99248.80
2018-01-20T12:40:35.853Z,99247.31
2018-01-20T12:41:41.530Z,99246.14
2018-01-20T12:42:47.250Z,99243.92
2018-01-20T12:43:52.995Z,99234.66
2018-01-20T12:44:58.673Z,99239.59
2018-01-20T12:46:04.262Z,99235.81
2018-01-20T12:47:09.826Z,99235.31
2018-01-20T12:48:15.387Z,99228.99
2018-01-20T12:49:20.907Z,99235.48
2018-01-20T12:50:26.677Z,99229.83
2018-01-20T12:51:32.550Z,99226.07
2018-01-20T12:52:39.316Z,99221.96
2018-01-20T12:53:45.174Z,99224.39
2018-01-20T12:54:51.028Z,99230.63
2018-01-20T12:55:56.787Z,99218.09
2018-01-20T12:57:02.555Z,99222.80